sensor_id;sensor_type;location;lat;lon;timestamp;P1;durP1;ratioP1;P2;durP2;ratioP2
20142;SDS011;10509;46.476;7.134;2023-07-30T00:01:35;1.90;;;1.80;;
20142;SDS011;10509;46.476;7.134;2023-07-30T00:04:01;2.73;;;2.17;;
20142;SDS011;10509;46.476;7.134;2023-07-30T00:06:27;2.30;;;2.10;;
20142;SDS011;10509;46.476;7.134;2023-07-30T00:08:53;2.10;;;1.90;;
20142;SDS011;10509;46.476;7.134;2023-07-30T00:11:19;1.73;;;1.63;;
20142;SDS011;10509;46.476;7.134;2023-07-30T00:13:45;2.57;;;2.03;;
20142;SDS011;10509;46.476;7.134;2023-07-30T00:16:11;1.90;;;1.73;;
20142;SDS011;10509;46.476;7.134;2023-07-30T00:18:37;2.50;;;2.10;;
20142;SDS011;10509;46.476;7.134;2023-07-30T00:21:03;3.00;;;2.10;;
20142;SDS011;10509;46.476;7.134;2023-07-30T00:23:29;2.17;;;1.97;;
20142;SDS011;10509;46.476;7.134;2023-07-30T00:25:55;2.03;;;1.60;;
20142;SDS011;10509;46.476;7.134;2023-07-30T00:28:21;2.83;;;2.60;;
20142;SDS011;10509;46.476;7.134;2023-07-30T00:30:47;5.53;;;2.10;;
20142;SDS011;10509;46.476;7.134;2023-07-30T00:33:13;1.97;;;1.87;;
20142;SDS011;10509;46.476;7.134;2023-07-30T00:35:39;3.13;;;1.73;;
20142;SDS011;10509;46.476;7.134;2023-07-30T00:38:05;3.00;;;2.20;;
20142;SDS011;10509;46.476;7.134;2023-07-30T00:40:31;3.13;;;2.10;;
20142;SDS011;10509;46.476;7.134;2023-07-30T00:42:57;2.17;;;1.97;;
20142;SDS011;10509;46.476;7.134;2023-07-30T00:45:23;3.47;;;1.70;;
20142;SDS011;10509;46.476;7.134;2023-07-30T00:47:49;2.60;;;1.90;;
20142;SDS011;10509;46.476;7.134;2023-07-30T00:50:15;3.20;;;1.90;;
20142;SDS011;10509;46.476;7.134;2023-07-30T00:52:42;3.10;;;2.10;;
20142;SDS011;10509;46.476;7.134;2023-07-30T00:55:08;2.63;;;2.27;;
20142;SDS011;10509;46.476;7.134;2023-07-30T00:57:35;4.23;;;2.40;;
20142;SDS011;10509;46.476;7.134;2023-07-30T01:00:01;2.47;;;2.27;;
20142;SDS011;10509;46.476;7.134;2023-07-30T01:02:32;2.50;;;2.30;;
20142;SDS011;10509;46.476;7.134;2023-07-30T01:04:58;3.87;;;3.20;;
20142;SDS011;10509;46.476;7.134;2023-07-30T01:07:26;7.50;;;2.33;;
20142;SDS011;10509;46.476;7.134;2023-07-30T01:09:52;2.90;;;2.60;;
20142;SDS011;10509;46.476;7.134;2023-07-30T01:12:18;2.97;;;2.50;;
20142;SDS011;10509;46.476;7.134;2023-07-30T01:14:45;5.30;;;4.67;;
20142;SDS011;10509;46.476;7.134;2023-07-30T01:17:11;3.67;;;3.10;;
20142;SDS011;10509;46.476;7.134;2023-07-30T01:19:37;2.97;;;2.70;;
20142;SDS011;10509;46.476;7.134;2023-07-30T01:22:03;3.43;;;3.13;;
20142;SDS011;10509;46.476;7.134;2023-07-30T01:24:29;2.87;;;2.67;;
20142;SDS011;10509;46.476;7.134;2023-07-30T01:26:56;4.60;;;2.97;;
20142;SDS011;10509;46.476;7.134;2023-07-30T01:29:38;2.60;;;2.40;;
20142;SDS011;10509;46.476;7.134;2023-07-30T01:32:07;3.00;;;2.47;;
20142;SDS011;10509;46.476;7.134;2023-07-30T01:34:34;2.83;;;2.63;;
20142;SDS011;10509;46.476;7.134;2023-07-30T01:37:00;2.77;;;2.50;;
20142;SDS011;10509;46.476;7.134;2023-07-30T01:39:27;2.80;;;2.53;;
20142;SDS011;10509;46.476;7.134;2023-07-30T01:41:53;3.27;;;2.43;;
20142;SDS011;10509;46.476;7.134;2023-07-30T01:44:20;2.63;;;2.43;;
20142;SDS011;10509;46.476;7.134;2023-07-30T01:46:46;2.97;;;2.53;;
20142;SDS011;10509;46.476;7.134;2023-07-30T01:49:12;2.80;;;2.60;;
20142;SDS011;10509;46.476;7.134;2023-07-30T01:51:37;2.83;;;2.63;;
20142;SDS011;10509;46.476;7.134;2023-07-30T01:54:03;3.10;;;2.83;;
20142;SDS011;10509;46.476;7.134;2023-07-30T01:56:29;2.50;;;2.30;;
20142;SDS011;10509;46.476;7.134;2023-07-30T01:58:55;2.67;;;2.47;;
20142;SDS011;10509;46.476;7.134;2023-07-30T02:01:21;3.83;;;2.60;;
20142;SDS011;10509;46.476;7.134;2023-07-30T02:03:47;2.40;;;2.30;;
20142;SDS011;10509;46.476;7.134;2023-07-30T02:06:14;4.03;;;2.40;;
20142;SDS011;10509;46.476;7.134;2023-07-30T02:08:40;3.40;;;2.50;;
20142;SDS011;10509;46.476;7.134;2023-07-30T02:11:06;2.50;;;2.30;;
20142;SDS011;10509;46.476;7.134;2023-07-30T02:13:32;3.03;;;2.73;;
20142;SDS011;10509;46.476;7.134;2023-07-30T02:15:57;3.00;;;2.70;;
20142;SDS011;10509;46.476;7.134;2023-07-30T02:18:24;2.57;;;2.37;;
20142;SDS011;10509;46.476;7.134;2023-07-30T02:20:50;2.37;;;2.17;;
20142;SDS011;10509;46.476;7.134;2023-07-30T02:23:16;2.73;;;2.53;;
20142;SDS011;10509;46.476;7.134;2023-07-30T02:25:42;3.77;;;2.70;;
20142;SDS011;10509;46.476;7.134;2023-07-30T02:28:08;2.57;;;2.37;;
20142;SDS011;10509;46.476;7.134;2023-07-30T02:30:34;3.10;;;2.80;;
20142;SDS011;10509;46.476;7.134;2023-07-30T02:33:01;3.10;;;2.80;;
20142;SDS011;10509;46.476;7.134;2023-07-30T02:35:27;2.93;;;2.63;;
20142;SDS011;10509;46.476;7.134;2023-07-30T02:37:53;2.60;;;2.40;;
20142;SDS011;10509;46.476;7.134;2023-07-30T02:40:19;3.10;;;2.80;;
20142;SDS011;10509;46.476;7.134;2023-07-30T02:42:45;3.33;;;3.03;;
20142;SDS011;10509;46.476;7.134;2023-07-30T02:45:11;3.30;;;3.00;;
20142;SDS011;10509;46.476;7.134;2023-07-30T02:47:37;3.53;;;3.10;;
20142;SDS011;10509;46.476;7.134;2023-07-30T02:50:03;3.43;;;2.80;;
20142;SDS011;10509;46.476;7.134;2023-07-30T02:52:31;3.23;;;2.93;;
20142;SDS011;10509;46.476;7.134;2023-07-30T02:54:57;3.30;;;3.03;;
20142;SDS011;10509;46.476;7.134;2023-07-30T02:57:22;2.60;;;2.40;;
20142;SDS011;10509;46.476;7.134;2023-07-30T02:59:48;3.33;;;2.53;;
20142;SDS011;10509;46.476;7.134;2023-07-30T03:02:14;2.97;;;2.77;;
20142;SDS011;10509;46.476;7.134;2023-07-30T03:04:40;2.60;;;2.40;;
20142;SDS011;10509;46.476;7.134;2023-07-30T03:07:06;2.87;;;2.67;;
20142;SDS011;10509;46.476;7.134;2023-07-30T03:09:32;5.07;;;2.17;;
20142;SDS011;10509;46.476;7.134;2023-07-30T03:11:59;2.97;;;2.00;;
20142;SDS011;10509;46.476;7.134;2023-07-30T03:14:25;1.87;;;1.77;;
20142;SDS011;10509;46.476;7.134;2023-07-30T03:16:51;2.23;;;1.90;;
20142;SDS011;10509;46.476;7.134;2023-07-30T03:19:17;2.07;;;1.80;;
20142;SDS011;10509;46.476;7.134;2023-07-30T03:21:43;2.57;;;2.10;;
20142;SDS011;10509;46.476;7.134;2023-07-30T03:24:09;3.57;;;2.10;;
20142;SDS011;10509;46.476;7.134;2023-07-30T03:26:35;1.80;;;1.70;;
20142;SDS011;10509;46.476;7.134;2023-07-30T03:29:01;3.43;;;2.00;;
20142;SDS011;10509;46.476;7.134;2023-07-30T03:31:26;4.70;;;2.47;;
20142;SDS011;10509;46.476;7.134;2023-07-30T03:33:53;1.60;;;1.50;;
20142;SDS011;10509;46.476;7.134;2023-07-30T03:36:19;2.40;;;2.20;;
20142;SDS011;10509;46.476;7.134;2023-07-30T03:38:45;1.90;;;1.80;;
20142;SDS011;10509;46.476;7.134;2023-07-30T03:41:12;2.50;;;2.30;;
20142;SDS011;10509;46.476;7.134;2023-07-30T03:43:38;2.73;;;2.13;;
20142;SDS011;10509;46.476;7.134;2023-07-30T03:46:04;2.30;;;2.10;;
20142;SDS011;10509;46.476;7.134;2023-07-30T03:48:30;2.67;;;2.10;;
20142;SDS011;10509;46.476;7.134;2023-07-30T03:50:56;1.87;;;1.73;;
20142;SDS011;10509;46.476;7.134;2023-07-30T03:53:22;3.47;;;1.70;;
20142;SDS011;10509;46.476;7.134;2023-07-30T03:55:48;2.17;;;1.80;;
20142;SDS011;10509;46.476;7.134;2023-07-30T03:58:14;4.30;;;2.10;;
20142;SDS011;10509;46.476;7.134;2023-07-30T04:00:40;2.27;;;2.07;;
20142;SDS011;10509;46.476;7.134;2023-07-30T04:03:07;1.77;;;1.67;;
20142;SDS011;10509;46.476;7.134;2023-07-30T04:05:33;1.93;;;1.83;;
20142;SDS011;10509;46.476;7.134;2023-07-30T04:07:59;2.97;;;1.63;;
20142;SDS011;10509;46.476;7.134;2023-07-30T04:10:25;4.53;;;2.37;;
20142;SDS011;10509;46.476;7.134;2023-07-30T04:12:51;1.93;;;1.77;;
20142;SDS011;10509;46.476;7.134;2023-07-30T04:15:17;1.50;;;1.40;;
20142;SDS011;10509;46.476;7.134;2023-07-30T04:17:43;1.60;;;1.50;;
20142;SDS011;10509;46.476;7.134;2023-07-30T04:20:09;1.90;;;1.80;;
20142;SDS011;10509;46.476;7.134;2023-07-30T04:22:36;1.50;;;1.40;;
20142;SDS011;10509;46.476;7.134;2023-07-30T04:25:02;1.63;;;1.30;;
20142;SDS011;10509;46.476;7.134;2023-07-30T04:27:28;1.53;;;1.43;;
20142;SDS011;10509;46.476;7.134;2023-07-30T04:29:54;1.50;;;1.40;;
20142;SDS011;10509;46.476;7.134;2023-07-30T04:32:20;1.50;;;1.40;;
20142;SDS011;10509;46.476;7.134;2023-07-30T04:34:46;1.60;;;1.30;;
20142;SDS011;10509;46.476;7.134;2023-07-30T04:37:12;1.30;;;1.20;;
20142;SDS011;10509;46.476;7.134;2023-07-30T04:39:38;1.03;;;1.03;;
20142;SDS011;10509;46.476;7.134;2023-07-30T04:42:04;1.23;;;1.10;;
20142;SDS011;10509;46.476;7.134;2023-07-30T04:44:30;1.50;;;1.20;;
20142;SDS011;10509;46.476;7.134;2023-07-30T04:46:56;1.70;;;1.50;;
20142;SDS011;10509;46.476;7.134;2023-07-30T04:49:22;1.60;;;1.50;;
20142;SDS011;10509;46.476;7.134;2023-07-30T04:51:48;1.60;;;1.47;;
20142;SDS011;10509;46.476;7.134;2023-07-30T04:54:14;1.33;;;1.23;;
20142;SDS011;10509;46.476;7.134;2023-07-30T04:56:40;2.73;;;1.77;;
20142;SDS011;10509;46.476;7.134;2023-07-30T04:59:06;1.47;;;1.30;;
20142;SDS011;10509;46.476;7.134;2023-07-30T05:01:32;3.43;;;1.50;;
20142;SDS011;10509;46.476;7.134;2023-07-30T05:03:58;6.07;;;1.60;;
20142;SDS011;10509;46.476;7.134;2023-07-30T05:06:24;1.93;;;1.30;;
20142;SDS011;10509;46.476;7.134;2023-07-30T05:08:50;1.63;;;1.53;;
20142;SDS011;10509;46.476;7.134;2023-07-30T05:11:16;2.00;;;1.80;;
20142;SDS011;10509;46.476;7.134;2023-07-30T05:13:42;1.40;;;1.30;;
20142;SDS011;10509;46.476;7.134;2023-07-30T05:16:08;1.50;;;1.40;;
20142;SDS011;10509;46.476;7.134;2023-07-30T05:18:34;1.70;;;1.60;;
20142;SDS011;10509;46.476;7.134;2023-07-30T05:21:00;1.83;;;1.70;;
20142;SDS011;10509;46.476;7.134;2023-07-30T05:23:26;1.97;;;1.30;;
20142;SDS011;10509;46.476;7.134;2023-07-30T05:25:52;1.37;;;1.27;;
20142;SDS011;10509;46.476;7.134;2023-07-30T05:28:18;1.87;;;1.33;;
20142;SDS011;10509;46.476;7.134;2023-07-30T05:30:44;1.47;;;1.30;;
20142;SDS011;10509;46.476;7.134;2023-07-30T05:33:10;2.47;;;1.80;;
20142;SDS011;10509;46.476;7.134;2023-07-30T05:35:36;2.23;;;1.60;;
20142;SDS011;10509;46.476;7.134;2023-07-30T05:38:02;1.70;;;1.60;;
20142;SDS011;10509;46.476;7.134;2023-07-30T05:40:28;1.93;;;1.73;;
20142;SDS011;10509;46.476;7.134;2023-07-30T05:42:54;1.53;;;1.43;;
20142;SDS011;10509;46.476;7.134;2023-07-30T05:45:20;1.80;;;1.50;;
20142;SDS011;10509;46.476;7.134;2023-07-30T05:47:46;1.30;;;1.20;;
20142;SDS011;10509;46.476;7.134;2023-07-30T05:50:12;1.73;;;1.40;;
20142;SDS011;10509;46.476;7.134;2023-07-30T05:52:38;1.50;;;1.40;;
20142;SDS011;10509;46.476;7.134;2023-07-30T05:55:04;1.60;;;1.40;;
20142;SDS011;10509;46.476;7.134;2023-07-30T05:57:30;1.57;;;1.47;;
20142;SDS011;10509;46.476;7.134;2023-07-30T05:59:56;2.17;;;1.53;;
20142;SDS011;10509;46.476;7.134;2023-07-30T06:02:22;4.70;;;1.50;;
20142;SDS011;10509;46.476;7.134;2023-07-30T06:04:48;1.67;;;1.40;;
20142;SDS011;10509;46.476;7.134;2023-07-30T06:07:14;1.83;;;1.50;;
20142;SDS011;10509;46.476;7.134;2023-07-30T06:09:40;2.47;;;1.50;;
20142;SDS011;10509;46.476;7.134;2023-07-30T06:12:06;1.40;;;1.30;;
20142;SDS011;10509;46.476;7.134;2023-07-30T06:14:32;1.60;;;1.50;;
20142;SDS011;10509;46.476;7.134;2023-07-30T06:16:58;1.90;;;1.80;;
20142;SDS011;10509;46.476;7.134;2023-07-30T06:19:27;1.77;;;1.67;;
20142;SDS011;10509;46.476;7.134;2023-07-30T06:21:53;1.80;;;1.70;;
20142;SDS011;10509;46.476;7.134;2023-07-30T06:24:19;2.83;;;1.40;;
20142;SDS011;10509;46.476;7.134;2023-07-30T06:26:45;3.80;;;1.60;;
20142;SDS011;10509;46.476;7.134;2023-07-30T06:29:11;2.37;;;1.60;;
20142;SDS011;10509;46.476;7.134;2023-07-30T06:31:37;1.73;;;1.37;;
20142;SDS011;10509;46.476;7.134;2023-07-30T06:34:03;1.30;;;1.20;;
20142;SDS011;10509;46.476;7.134;2023-07-30T06:36:29;1.27;;;1.17;;
20142;SDS011;10509;46.476;7.134;2023-07-30T06:38:55;1.20;;;1.10;;
20142;SDS011;10509;46.476;7.134;2023-07-30T06:41:21;1.60;;;1.50;;
20142;SDS011;10509;46.476;7.134;2023-07-30T06:43:47;1.93;;;1.20;;
20142;SDS011;10509;46.476;7.134;2023-07-30T06:46:13;2.10;;;1.37;;
20142;SDS011;10509;46.476;7.134;2023-07-30T06:48:39;1.37;;;1.27;;
20142;SDS011;10509;46.476;7.134;2023-07-30T06:51:06;1.37;;;1.27;;
20142;SDS011;10509;46.476;7.134;2023-07-30T06:53:32;1.77;;;1.60;;
20142;SDS011;10509;46.476;7.134;2023-07-30T06:55:58;1.33;;;1.23;;
20142;SDS011;10509;46.476;7.134;2023-07-30T06:58:24;2.20;;;1.40;;
20142;SDS011;10509;46.476;7.134;2023-07-30T07:00:50;1.50;;;1.40;;
20142;SDS011;10509;46.476;7.134;2023-07-30T07:03:17;2.27;;;1.70;;
20142;SDS011;10509;46.476;7.134;2023-07-30T07:05:43;2.47;;;1.47;;
20142;SDS011;10509;46.476;7.134;2023-07-30T07:08:09;1.97;;;1.43;;
20142;SDS011;10509;46.476;7.134;2023-07-30T07:10:35;1.67;;;1.33;;
20142;SDS011;10509;46.476;7.134;2023-07-30T07:13:01;2.07;;;1.60;;
20142;SDS011;10509;46.476;7.134;2023-07-30T07:15:27;1.67;;;1.27;;
20142;SDS011;10509;46.476;7.134;2023-07-30T07:17:53;1.93;;;1.40;;
20142;SDS011;10509;46.476;7.134;2023-07-30T07:20:19;2.00;;;1.50;;
20142;SDS011;10509;46.476;7.134;2023-07-30T07:22:45;2.80;;;1.90;;
20142;SDS011;10509;46.476;7.134;2023-07-30T07:25:11;2.17;;;1.40;;
20142;SDS011;10509;46.476;7.134;2023-07-30T07:27:37;1.50;;;1.40;;
20142;SDS011;10509;46.476;7.134;2023-07-30T07:30:03;1.43;;;1.20;;
20142;SDS011;10509;46.476;7.134;2023-07-30T07:32:29;1.60;;;1.50;;
20142;SDS011;10509;46.476;7.134;2023-07-30T07:34:55;11.00;;;1.97;;
20142;SDS011;10509;46.476;7.134;2023-07-30T07:37:21;2.63;;;1.50;;
20142;SDS011;10509;46.476;7.134;2023-07-30T07:39:46;2.30;;;1.27;;
20142;SDS011;10509;46.476;7.134;2023-07-30T07:42:12;2.10;;;1.80;;
20142;SDS011;10509;46.476;7.134;2023-07-30T07:44:38;1.40;;;1.30;;
20142;SDS011;10509;46.476;7.134;2023-07-30T07:47:03;3.00;;;1.50;;
20142;SDS011;10509;46.476;7.134;2023-07-30T07:49:29;1.20;;;1.10;;
20142;SDS011;10509;46.476;7.134;2023-07-30T07:51:55;1.00;;;0.88;;
20142;SDS011;10509;46.476;7.134;2023-07-30T07:54:20;2.08;;;0.98;;
20142;SDS011;10509;46.476;7.134;2023-07-30T07:56:47;2.88;;;1.23;;
20142;SDS011;10509;46.476;7.134;2023-07-30T07:59:13;1.05;;;0.80;;
20142;SDS011;10509;46.476;7.134;2023-07-30T08:01:39;1.85;;;1.00;;
20142;SDS011;10509;46.476;7.134;2023-07-30T08:04:05;1.20;;;1.10;;
20142;SDS011;10509;46.476;7.134;2023-07-30T08:06:31;0.90;;;0.90;;
20142;SDS011;10509;46.476;7.134;2023-07-30T08:08:57;1.58;;;0.98;;
20142;SDS011;10509;46.476;7.134;2023-07-30T08:11:23;1.25;;;0.77;;
20142;SDS011;10509;46.476;7.134;2023-07-30T08:13:49;1.33;;;0.80;;
20142;SDS011;10509;46.476;7.134;2023-07-30T08:16:15;1.23;;;0.80;;
20142;SDS011;10509;46.476;7.134;2023-07-30T08:18:41;1.00;;;0.80;;
20142;SDS011;10509;46.476;7.134;2023-07-30T08:21:07;1.75;;;0.70;;
20142;SDS011;10509;46.476;7.134;2023-07-30T08:23:33;0.70;;;0.70;;
20142;SDS011;10509;46.476;7.134;2023-07-30T08:25:59;0.85;;;0.80;;
20142;SDS011;10509;46.476;7.134;2023-07-30T08:28:25;1.05;;;0.88;;
20142;SDS011;10509;46.476;7.134;2023-07-30T08:30:51;1.50;;;0.70;;
20142;SDS011;10509;46.476;7.134;2023-07-30T08:33:17;0.85;;;0.73;;
20142;SDS011;10509;46.476;7.134;2023-07-30T08:35:43;2.13;;;0.95;;
20142;SDS011;10509;46.476;7.134;2023-07-30T08:38:09;0.80;;;0.70;;
20142;SDS011;10509;46.476;7.134;2023-07-30T08:40:35;2.05;;;0.80;;
20142;SDS011;10509;46.476;7.134;2023-07-30T08:43:02;1.00;;;0.77;;
20142;SDS011;10509;46.476;7.134;2023-07-30T08:45:29;1.00;;;0.77;;
20142;SDS011;10509;46.476;7.134;2023-07-30T08:47:55;1.05;;;0.95;;
20142;SDS011;10509;46.476;7.134;2023-07-30T08:50:21;3.38;;;0.80;;
20142;SDS011;10509;46.476;7.134;2023-07-30T08:52:48;1.15;;;0.80;;
20142;SDS011;10509;46.476;7.134;2023-07-30T08:55:14;0.80;;;0.80;;
20142;SDS011;10509;46.476;7.134;2023-07-30T08:57:41;0.93;;;0.80;;
20142;SDS011;10509;46.476;7.134;2023-07-30T09:00:09;1.30;;;1.00;;
20142;SDS011;10509;46.476;7.134;2023-07-30T09:02:42;1.75;;;1.00;;
20142;SDS011;10509;46.476;7.134;2023-07-30T09:05:09;1.00;;;0.88;;
20142;SDS011;10509;46.476;7.134;2023-07-30T09:07:35;0.90;;;0.80;;
20142;SDS011;10509;46.476;7.134;2023-07-30T09:10:01;1.45;;;0.90;;
20142;SDS011;10509;46.476;7.134;2023-07-30T09:12:31;1.25;;;0.90;;
20142;SDS011;10509;46.476;7.134;2023-07-30T09:14:57;0.70;;;0.70;;
20142;SDS011;10509;46.476;7.134;2023-07-30T09:17:24;1.15;;;0.88;;
20142;SDS011;10509;46.476;7.134;2023-07-30T09:19:51;1.27;;;0.90;;
20142;SDS011;10509;46.476;7.134;2023-07-30T09:22:35;1.00;;;0.80;;
20142;SDS011;10509;46.476;7.134;2023-07-30T09:25:04;1.20;;;0.90;;
20142;SDS011;10509;46.476;7.134;2023-07-30T09:27:31;1.20;;;0.90;;
20142;SDS011;10509;46.476;7.134;2023-07-30T09:29:57;3.08;;;1.17;;
20142;SDS011;10509;46.476;7.134;2023-07-30T09:32:29;2.05;;;0.93;;
20142;SDS011;10509;46.476;7.134;2023-07-30T09:35:03;1.83;;;1.00;;
20142;SDS011;10509;46.476;7.134;2023-07-30T09:37:30;1.25;;;1.00;;
20142;SDS011;10509;46.476;7.134;2023-07-30T09:39:57;3.58;;;1.00;;
20142;SDS011;10509;46.476;7.134;2023-07-30T09:42:26;2.17;;;1.20;;
20142;SDS011;10509;46.476;7.134;2023-07-30T09:44:53;1.15;;;1.00;;
20142;SDS011;10509;46.476;7.134;2023-07-30T09:47:18;11.63;;;1.80;;
20142;SDS011;10509;46.476;7.134;2023-07-30T09:49:44;1.85;;;0.90;;
20142;SDS011;10509;46.476;7.134;2023-07-30T09:52:10;15.02;;;1.10;;
20142;SDS011;10509;46.476;7.134;2023-07-30T09:54:37;1.73;;;0.98;;
20142;SDS011;10509;46.476;7.134;2023-07-30T09:57:04;0.80;;;0.80;;
20142;SDS011;10509;46.476;7.134;2023-07-30T09:59:30;1.63;;;0.80;;
20142;SDS011;10509;46.476;7.134;2023-07-30T10:01:56;1.70;;;0.90;;
20142;SDS011;10509;46.476;7.134;2023-07-30T10:04:23;0.98;;;0.90;;
20142;SDS011;10509;46.476;7.134;2023-07-30T10:06:56;1.40;;;1.10;;
20142;SDS011;10509;46.476;7.134;2023-07-30T10:09:25;1.38;;;1.00;;
20142;SDS011;10509;46.476;7.134;2023-07-30T10:11:52;1.10;;;1.00;;
20142;SDS011;10509;46.476;7.134;2023-07-30T10:14:20;1.15;;;0.90;;
20142;SDS011;10509;46.476;7.134;2023-07-30T10:16:50;0.90;;;0.80;;
20142;SDS011;10509;46.476;7.134;2023-07-30T10:19:17;1.15;;;1.05;;
20142;SDS011;10509;46.476;7.134;2023-07-30T10:21:43;1.27;;;1.00;;
20142;SDS011;10509;46.476;7.134;2023-07-30T10:24:09;1.48;;;0.85;;
20142;SDS011;10509;46.476;7.134;2023-07-30T10:26:35;0.90;;;0.90;;
20142;SDS011;10509;46.476;7.134;2023-07-30T10:29:18;1.38;;;1.27;;
20142;SDS011;10509;46.476;7.134;2023-07-30T10:31:54;1.60;;;1.05;;
20142;SDS011;10509;46.476;7.134;2023-07-30T10:34:20;1.02;;;1.00;;
20142;SDS011;10509;46.476;7.134;2023-07-30T10:36:47;1.10;;;1.00;;
20142;SDS011;10509;46.476;7.134;2023-07-30T10:39:14;1.20;;;1.00;;
20142;SDS011;10509;46.476;7.134;2023-07-30T10:41:42;6.60;;;1.27;;
20142;SDS011;10509;46.476;7.134;2023-07-30T10:44:16;1.23;;;1.13;;
20142;SDS011;10509;46.476;7.134;2023-07-30T10:46:43;1.10;;;1.00;;
20142;SDS011;10509;46.476;7.134;2023-07-30T10:49:09;1.65;;;1.10;;
20142;SDS011;10509;46.476;7.134;2023-07-30T10:51:37;2.20;;;1.20;;
20142;SDS011;10509;46.476;7.134;2023-07-30T10:54:05;1.20;;;1.10;;
20142;SDS011;10509;46.476;7.134;2023-07-30T10:56:31;1.63;;;1.05;;
20142;SDS011;10509;46.476;7.134;2023-07-30T10:58:57;1.30;;;1.20;;
20142;SDS011;10509;46.476;7.134;2023-07-30T11:01:26;1.10;;;1.00;;
20142;SDS011;10509;46.476;7.134;2023-07-30T11:03:52;3.17;;;1.30;;
20142;SDS011;10509;46.476;7.134;2023-07-30T11:06:22;1.73;;;0.90;;
20142;SDS011;10509;46.476;7.134;2023-07-30T11:08:48;1.10;;;1.00;;
20142;SDS011;10509;46.476;7.134;2023-07-30T11:11:14;2.47;;;1.17;;
20142;SDS011;10509;46.476;7.134;2023-07-30T11:13:43;1.10;;;1.00;;
20142;SDS011;10509;46.476;7.134;2023-07-30T11:16:11;1.45;;;0.90;;
20142;SDS011;10509;46.476;7.134;2023-07-30T11:18:38;2.60;;;1.10;;
20142;SDS011;10509;46.476;7.134;2023-07-30T11:21:08;1.67;;;1.17;;
20142;SDS011;10509;46.476;7.134;2023-07-30T11:23:35;1.25;;;1.15;;
20142;SDS011;10509;46.476;7.134;2023-07-30T11:26:02;1.33;;;1.00;;
20142;SDS011;10509;46.476;7.134;2023-07-30T11:30:58;1.35;;;1.10;;
20142;SDS011;10509;46.476;7.134;2023-07-30T11:33:28;1.70;;;1.10;;
20142;SDS011;10509;46.476;7.134;2023-07-30T11:35:57;1.65;;;1.02;;
20142;SDS011;10509;46.476;7.134;2023-07-30T11:38:24;2.15;;;1.10;;
20142;SDS011;10509;46.476;7.134;2023-07-30T11:40:51;1.02;;;0.90;;
20142;SDS011;10509;46.476;7.134;2023-07-30T11:43:17;1.17;;;1.00;;
20142;SDS011;10509;46.476;7.134;2023-07-30T11:45:44;1.00;;;0.90;;
20142;SDS011;10509;46.476;7.134;2023-07-30T11:48:10;1.38;;;1.00;;
20142;SDS011;10509;46.476;7.134;2023-07-30T11:50:50;1.48;;;1.30;;
20142;SDS011;10509;46.476;7.134;2023-07-30T11:53:17;1.77;;;0.98;;
20142;SDS011;10509;46.476;7.134;2023-07-30T11:55:44;1.38;;;1.10;;
20142;SDS011;10509;46.476;7.134;2023-07-30T11:58:11;1.08;;;0.98;;
20142;SDS011;10509;46.476;7.134;2023-07-30T12:00:41;1.50;;;1.17;;
20142;SDS011;10509;46.476;7.134;2023-07-30T12:03:10;1.13;;;1.00;;
20142;SDS011;10509;46.476;7.134;2023-07-30T12:05:39;1.15;;;1.02;;
20142;SDS011;10509;46.476;7.134;2023-07-30T12:08:05;2.78;;;0.98;;
20142;SDS011;10509;46.476;7.134;2023-07-30T12:10:43;1.20;;;1.10;;
20142;SDS011;10509;46.476;7.134;2023-07-30T12:13:14;2.47;;;1.00;;
20142;SDS011;10509;46.476;7.134;2023-07-30T12:15:42;2.13;;;0.90;;
20142;SDS011;10509;46.476;7.134;2023-07-30T12:18:09;2.47;;;1.20;;
20142;SDS011;10509;46.476;7.134;2023-07-30T12:20:35;1.17;;;0.85;;
20142;SDS011;10509;46.476;7.134;2023-07-30T12:23:01;1.30;;;1.20;;
20142;SDS011;10509;46.476;7.134;2023-07-30T12:25:28;1.33;;;1.10;;
20142;SDS011;10509;46.476;7.134;2023-07-30T12:27:54;2.38;;;1.00;;
20142;SDS011;10509;46.476;7.134;2023-07-30T12:30:20;1.10;;;1.00;;
20142;SDS011;10509;46.476;7.134;2023-07-30T12:32:46;1.33;;;0.95;;
20142;SDS011;10509;46.476;7.134;2023-07-30T12:35:12;1.50;;;1.05;;
20142;SDS011;10509;46.476;7.134;2023-07-30T12:37:38;1.15;;;1.05;;
20142;SDS011;10509;46.476;7.134;2023-07-30T12:40:04;1.17;;;0.82;;
20142;SDS011;10509;46.476;7.134;2023-07-30T12:42:31;1.92;;;1.00;;
20142;SDS011;10509;46.476;7.134;2023-07-30T12:44:57;2.83;;;1.10;;
20142;SDS011;10509;46.476;7.134;2023-07-30T12:47:23;1.27;;;1.17;;
20142;SDS011;10509;46.476;7.134;2023-07-30T12:49:49;1.30;;;1.20;;
20142;SDS011;10509;46.476;7.134;2023-07-30T12:52:15;1.33;;;1.10;;
20142;SDS011;10509;46.476;7.134;2023-07-30T12:54:41;1.15;;;1.05;;
20142;SDS011;10509;46.476;7.134;2023-07-30T12:57:07;1.27;;;1.08;;
20142;SDS011;10509;46.476;7.134;2023-07-30T12:59:33;2.47;;;1.35;;
20142;SDS011;10509;46.476;7.134;2023-07-30T13:02:01;1.10;;;1.00;;
20142;SDS011;10509;46.476;7.134;2023-07-30T13:04:27;1.63;;;1.17;;
20142;SDS011;10509;46.476;7.134;2023-07-30T13:06:56;1.80;;;1.30;;
20142;SDS011;10509;46.476;7.134;2023-07-30T13:09:22;1.40;;;1.20;;
20142;SDS011;10509;46.476;7.134;2023-07-30T13:11:48;1.75;;;1.30;;
20142;SDS011;10509;46.476;7.134;2023-07-30T13:14:14;1.23;;;1.13;;
20142;SDS011;10509;46.476;7.134;2023-07-30T13:16:40;1.13;;;1.02;;
20142;SDS011;10509;46.476;7.134;2023-07-30T13:19:06;2.85;;;1.10;;
20142;SDS011;10509;46.476;7.134;2023-07-30T13:21:32;1.20;;;1.08;;
20142;SDS011;10509;46.476;7.134;2023-07-30T13:23:58;1.10;;;1.00;;
20142;SDS011;10509;46.476;7.134;2023-07-30T13:26:24;1.65;;;1.30;;
20142;SDS011;10509;46.476;7.134;2023-07-30T13:28:50;1.45;;;1.10;;
20142;SDS011;10509;46.476;7.134;2023-07-30T13:31:16;1.42;;;1.30;;
20142;SDS011;10509;46.476;7.134;2023-07-30T13:33:43;1.40;;;1.30;;
20142;SDS011;10509;46.476;7.134;2023-07-30T13:36:12;1.55;;;1.10;;
20142;SDS011;10509;46.476;7.134;2023-07-30T13:38:38;1.70;;;1.08;;
20142;SDS011;10509;46.476;7.134;2023-07-30T13:41:04;1.30;;;1.20;;
20142;SDS011;10509;46.476;7.134;2023-07-30T13:43:30;1.30;;;1.20;;
20142;SDS011;10509;46.476;7.134;2023-07-30T13:45:56;2.90;;;1.95;;
20142;SDS011;10509;46.476;7.134;2023-07-30T13:48:23;2.08;;;1.38;;
20142;SDS011;10509;46.476;7.134;2023-07-30T13:50:49;1.42;;;1.10;;
20142;SDS011;10509;46.476;7.134;2023-07-30T13:53:15;1.73;;;1.13;;
20142;SDS011;10509;46.476;7.134;2023-07-30T13:55:41;1.35;;;1.10;;
20142;SDS011;10509;46.476;7.134;2023-07-30T13:58:08;1.02;;;0.93;;
20142;SDS011;10509;46.476;7.134;2023-07-30T14:00:34;1.38;;;1.27;;
20142;SDS011;10509;46.476;7.134;2023-07-30T14:03:00;1.55;;;1.00;;
20142;SDS011;10509;46.476;7.134;2023-07-30T14:05:26;1.17;;;0.95;;
20142;SDS011;10509;46.476;7.134;2023-07-30T14:07:55;2.03;;;1.00;;
20142;SDS011;10509;46.476;7.134;2023-07-30T14:10:24;1.60;;;1.00;;
20142;SDS011;10509;46.476;7.134;2023-07-30T14:12:51;1.45;;;1.13;;
20142;SDS011;10509;46.476;7.134;2023-07-30T14:15:17;1.20;;;1.10;;
20142;SDS011;10509;46.476;7.134;2023-07-30T14:17:43;4.72;;;1.20;;
20142;SDS011;10509;46.476;7.134;2023-07-30T14:20:09;1.40;;;1.00;;
20142;SDS011;10509;46.476;7.134;2023-07-30T14:22:35;3.30;;;1.10;;
20142;SDS011;10509;46.476;7.134;2023-07-30T14:25:02;4.63;;;1.40;;
20142;SDS011;10509;46.476;7.134;2023-07-30T14:27:28;2.65;;;1.10;;
20142;SDS011;10509;46.476;7.134;2023-07-30T14:29:54;1.70;;;1.05;;
20142;SDS011;10509;46.476;7.134;2023-07-30T14:32:20;1.00;;;0.90;;
20142;SDS011;10509;46.476;7.134;2023-07-30T14:34:46;1.92;;;1.00;;
20142;SDS011;10509;46.476;7.134;2023-07-30T14:37:12;1.33;;;0.90;;
20142;SDS011;10509;46.476;7.134;2023-07-30T14:39:38;1.85;;;0.90;;
20142;SDS011;10509;46.476;7.134;2023-07-30T14:42:06;1.52;;;1.10;;
20142;SDS011;10509;46.476;7.134;2023-07-30T14:44:32;1.67;;;0.90;;
20142;SDS011;10509;46.476;7.134;2023-07-30T14:46:58;0.90;;;0.90;;